Time;durP1;ratioP1;P1;durP2;ratioP2;P2;SDS_P1;SDS_P2;PMS_P1;PMS_P2;Temp;Humidity;BMP_temperature;BMP_pressure;BME280_temperature;BME280_humidity;BME280_pressure;Samples;Min_cycle;Max_cycle;Signal;HPM_P1;HPM_P2
2021/12/03 00:00:41;;;;;;;9.93;6.45;;;-1.10;99.90;;;;;;5044023;28;20037;-69
2021/12/03 00:03:09;;;;;;;12.68;7.97;;;-1.10;99.90;;;;;;5057215;28;20080;-69
2021/12/03 00:05:35;;;;;;;12.75;8.65;;;-1.10;99.90;;;;;;5054209;28;20167;-69
2021/12/03 00:08:02;;;;;;;8.70;7.70;;;-1.20;99.90;;;;;;5050956;28;20445;-69
2021/12/03 00:10:28;;;;;;;17.73;7.93;;;-1.20;99.90;;;;;;5048438;28;20048;-69
2021/12/03 00:12:57;;;;;;;16.25;9.88;;;-1.20;99.90;;;;;;5052715;28;20103;-70
2021/12/03 00:15:25;;;;;;;12.15;8.82;;;-1.20;99.90;;;;;;5052277;28;20848;-69
2021/12/03 00:17:51;;;;;;;14.43;9.10;;;-1.20;99.90;;;;;;5050563;28;20514;-69
2021/12/03 00:20:18;;;;;;;17.70;8.48;;;-1.20;99.90;;;;;;5060085;28;20468;-69
2021/12/03 00:22:46;;;;;;;14.75;8.45;;;-1.10;99.90;;;;;;5044523;28;20101;-70
2021/12/03 00:25:12;;;;;;;11.02;8.63;;;-1.10;99.90;;;;;;5047470;28;20041;-70
2021/12/03 00:27:38;;;;;;;12.13;9.95;;;-1.10;99.90;;;;;;5053203;28;20052;-70
2021/12/03 00:30:06;;;;;;;12.35;9.63;;;-1.10;99.90;;;;;;5049319;28;20056;-69
2021/12/03 00:32:32;;;;;;;13.85;9.98;;;-1.10;99.90;;;;;;5053224;28;20040;-69
2021/12/03 00:34:58;;;;;;;18.05;10.55;;;-1.20;99.90;;;;;;5048046;28;20040;-70
2021/12/03 00:37:24;;;;;;;15.45;9.45;;;-1.20;99.90;;;;;;5046931;28;20044;-70
2021/12/03 00:39:50;;;;;;;13.23;10.90;;;-1.10;99.90;;;;;;5055552;28;20095;-70
2021/12/03 00:42:17;;;;;;;13.23;9.15;;;-1.10;99.90;;;;;;5047693;28;20044;-70
2021/12/03 00:44:50;;;;;;;16.97;9.80;;;-1.10;99.90;;;;;;5053792;28;20053;-70
2021/12/03 00:47:16;;;;;;;11.35;9.93;;;-1.10;99.90;;;;;;5049354;28;20048;-70
2021/12/03 00:49:42;;;;;;;17.77;9.93;;;-1.10;99.90;;;;;;5047762;28;20117;-70
2021/12/03 00:52:07;;;;;;;12.10;8.57;;;-1.10;99.90;;;;;;5060396;28;20131;-70
2021/12/03 00:54:34;;;;;;;17.45;10.80;;;-1.00;99.90;;;;;;5049365;28;20454;-70
2021/12/03 00:56:59;;;;;;;20.08;12.60;;;-1.00;99.90;;;;;;5060437;28;20048;-70
2021/12/03 00:59:25;;;;;;;17.90;12.80;;;-0.90;99.90;;;;;;5047496;28;20053;-70
2021/12/03 01:01:51;;;;;;;19.05;13.63;;;-0.80;99.90;;;;;;5046695;28;20051;-70
2021/12/03 01:04:17;;;;;;;21.30;13.98;;;-0.70;99.90;;;;;;5047912;28;20041;-70
2021/12/03 01:06:43;;;;;;;23.88;15.05;;;-0.70;99.90;;;;;;5048687;28;20127;-70
2021/12/03 01:09:08;;;;;;;22.95;16.67;;;-0.70;99.90;;;;;;5047568;28;20688;-70
2021/12/03 01:11:34;;;;;;;23.75;16.20;;;-0.60;99.90;;;;;;5053738;28;20041;-70
2021/12/03 01:14:00;;;;;;;26.63;17.58;;;-0.60;99.90;;;;;;5056929;28;20049;-70
2021/12/03 01:16:27;;;;;;;31.05;17.50;;;-0.50;99.90;;;;;;5049387;28;20390;-70
2021/12/03 01:18:54;;;;;;;20.50;15.90;;;-0.50;99.90;;;;;;5054279;28;20119;-70
2021/12/03 01:21:19;;;;;;;23.55;17.13;;;-0.40;99.90;;;;;;5048027;28;20052;-70
2021/12/03 01:23:47;;;;;;;30.20;17.33;;;-0.40;99.90;;;;;;5045232;28;20036;-70
2021/12/03 01:26:13;;;;;;;28.17;18.50;;;-0.40;99.90;;;;;;5038255;28;22771;-70
2021/12/03 01:28:40;;;;;;;23.45;17.73;;;-0.30;99.90;;;;;;5053615;28;20105;-70
2021/12/03 01:31:06;;;;;;;22.05;15.60;;;-0.30;99.90;;;;;;5052999;28;20517;-70
2021/12/03 01:33:32;;;;;;;22.17;17.00;;;-0.30;99.90;;;;;;5047041;28;20090;-70
2021/12/03 01:35:57;;;;;;;27.65;18.33;;;-0.20;99.90;;;;;;5045224;28;20437;-70
2021/12/03 01:38:23;;;;;;;25.55;18.77;;;-0.20;99.90;;;;;;5056527;28;20570;-70
2021/12/03 01:40:49;;;;;;;18.92;15.75;;;-0.20;99.90;;;;;;5050001;28;20875;-70
2021/12/03 01:43:21;;;;;;;30.45;18.90;;;-0.10;99.90;;;;;;5057925;28;20109;-70
2021/12/03 01:45:47;;;;;;;25.77;17.60;;;-0.10;99.90;;;;;;5051052;28;20052;-70
2021/12/03 01:48:13;;;;;;;24.63;18.08;;;-0.10;99.90;;;;;;5047195;28;20067;-70
2021/12/03 01:50:42;;;;;;;30.67;20.33;;;-0.10;99.90;;;;;;5043724;28;20090;-70
2021/12/03 01:53:08;;;;;;;;;;;-0.10;99.90;;;;;;5048611;28;20060;-70
2021/12/03 01:55:35;;;;;;;31.83;21.33;;;-0.10;99.90;;;;;;5048156;28;19970;-70
2021/12/03 01:58:01;;;;;;;30.20;20.48;;;-0.10;99.90;;;;;;5044421;28;20498;-70
2021/12/03 02:00:56;;;;;;;30.05;21.10;;;0.00;99.90;;;;;;5046471;28;20075;-70
2021/12/03 02:03:24;;;;;;;24.38;20.52;;;0.00;99.90;;;;;;5061013;28;20045;-70
2021/12/03 02:05:49;;;;;;;35.40;24.65;;;0.00;99.90;;;;;;5050047;28;20044;-70
2021/12/03 02:08:16;;;;;;;40.17;23.55;;;0.00;99.90;;;;;;5046151;28;20044;-70
2021/12/03 02:10:43;;;;;;;37.08;26.67;;;0.10;99.90;;;;;;5045803;28;20872;-70
2021/12/03 02:13:10;;;;;;;45.97;31.38;;;0.10;99.90;;;;;;5048036;28;20045;-70
2021/12/03 02:15:37;;;;;;;44.45;29.48;;;0.10;99.90;;;;;;5055320;28;20075;-70
2021/12/03 02:18:03;;;;;;;47.17;32.25;;;0.10;99.90;;;;;;5046531;28;20405;-70
2021/12/03 02:20:29;;;;;;;47.67;33.50;;;0.10;99.90;;;;;;5049081;28;20112;-70
2021/12/03 02:22:55;;;;;;;48.42;35.88;;;0.20;99.90;;;;;;5046135;28;20127;-70
2021/12/03 02:25:22;;;;;;;58.17;38.58;;;0.20;99.90;;;;;;5045722;28;20052;-70
2021/12/03 02:27:50;;;;;;;63.95;42.85;;;0.20;99.90;;;;;;5041903;28;20084;-70
2021/12/03 02:30:17;;;;;;;57.78;42.13;;;0.20;99.90;;;;;;5044889;28;20064;-69
2021/12/03 02:32:43;;;;;;;73.32;49.13;;;0.20;99.90;;;;;;5047042;28;20056;-69
2021/12/03 02:35:09;;;;;;;63.67;42.83;;;0.30;99.90;;;;;;5045624;28;20120;-69
2021/12/03 02:37:35;;;;;;;64.63;50.58;;;0.30;99.90;;;;;;5049689;28;20514;-70
2021/12/03 02:40:03;;;;;;;68.85;46.97;;;0.30;99.90;;;;;;5055895;28;20046;-70
2021/12/03 02:42:29;;;;;;;69.78;49.88;;;0.30;99.90;;;;;;5047944;28;20387;-70
2021/12/03 02:44:56;;;;;;;68.13;50.55;;;0.30;99.90;;;;;;5061452;28;20055;-70
2021/12/03 02:47:22;;;;;;;76.85;53.20;;;0.30;99.90;;;;;;5050636;28;20098;-69
2021/12/03 02:49:48;;;;;;;73.53;49.28;;;0.30;99.90;;;;;;5053781;28;20044;-70
2021/12/03 02:52:14;;;;;;;63.97;48.15;;;0.30;99.90;;;;;;5059265;28;20063;-70
2021/12/03 02:54:40;;;;;;;90.57;50.65;;;0.40;99.90;;;;;;5045900;28;20049;-70
2021/12/03 02:57:05;;;;;;;66.32;50.30;;;0.30;99.90;;;;;;5061987;28;20058;-70
2021/12/03 02:59:32;;;;;;;69.53;50.20;;;0.30;99.90;;;;;;5044384;28;20857;-70
2021/12/03 03:01:59;;;;;;;67.07;49.35;;;0.40;99.90;;;;;;5047404;28;20508;-70
2021/12/03 03:04:25;;;;;;;65.63;47.92;;;0.40;99.90;;;;;;5055250;28;20053;-70
2021/12/03 03:06:50;;;;;;;64.22;48.67;;;0.40;99.90;;;;;;5044612;28;20410;-69
2021/12/03 03:09:16;;;;;;;66.47;49.42;;;0.40;99.90;;;;;;5053813;28;20247;-70
2021/12/03 03:11:42;;;;;;;65.93;48.00;;;0.40;99.90;;;;;;5043952;28;20409;-70
2021/12/03 03:14:08;;;;;;;68.18;47.17;;;0.30;99.90;;;;;;5047418;28;20032;-70
2021/12/03 03:16:34;;;;;;;59.55;45.72;;;0.40;99.90;;;;;;5050552;28;20071;-70
2021/12/03 03:19:07;;;;;;;62.70;46.13;;;0.30;99.90;;;;;;5058553;28;20047;-70
2021/12/03 03:21:33;;;;;;;67.60;47.42;;;0.30;99.90;;;;;;5055217;28;20053;-70
2021/12/03 03:23:59;;;;;;;64.13;47.17;;;0.30;99.90;;;;;;5049720;28;20045;-70
2021/12/03 03:26:25;;;;;;;67.20;48.60;;;0.30;99.90;;;;;;5060484;28;20048;-70
2021/12/03 03:28:50;;;;;;;61.70;47.13;;;0.30;99.90;;;;;;5054675;28;20079;-70
2021/12/03 03:31:16;;;;;;;53.72;43.10;;;0.30;99.90;;;;;;5049899;28;20092;-70
2021/12/03 03:33:42;;;;;;;73.25;48.78;;;0.30;99.90;;;;;;5061567;28;20451;-70
2021/12/03 03:36:08;;;;;;;63.83;45.92;;;0.30;99.90;;;;;;5054524;28;20052;-70
2021/12/03 03:38:33;;;;;;;62.67;46.15;;;0.30;99.90;;;;;;5060265;28;20791;-70
2021/12/03 03:40:59;;;;;;;65.25;47.88;;;0.30;99.90;;;;;;5049438;28;20477;-70
2021/12/03 03:43:25;;;;;;;68.13;44.92;;;0.20;99.90;;;;;;5062645;28;20402;-70
2021/12/03 03:45:52;;;;;;;69.57;51.33;;;0.20;99.90;;;;;;5047257;28;20056;-70
2021/12/03 03:48:18;;;;;;;65.38;46.50;;;0.20;99.90;;;;;;5053080;28;20053;-70
2021/12/03 03:50:44;;;;;;;78.18;49.85;;;0.20;99.90;;;;;;5050233;28;20383;-70
2021/12/03 03:53:10;;;;;;;64.80;49.03;;;0.20;99.90;;;;;;5050889;28;20094;-70
2021/12/03 03:55:36;;;;;;;62.72;48.92;;;0.20;99.90;;;;;;5048323;28;20110;-70
2021/12/03 03:58:03;;;;;;;67.38;50.33;;;0.20;99.90;;;;;;5050674;28;20048;-70
2021/12/03 04:00:33;;;;;;;63.15;46.88;;;0.20;99.90;;;;;;5059763;28;20124;-70
2021/12/03 04:02:59;;;;;;;70.88;51.33;;;0.20;99.90;;;;;;5053414;28;20110;-70
2021/12/03 04:05:25;;;;;;;65.80;48.70;;;0.10;99.90;;;;;;5049241;28;20069;-70
2021/12/03 04:07:50;;;;;;;76.20;54.45;;;0.20;99.90;;;;;;5049453;28;20056;-70
2021/12/03 04:10:16;;;;;;;62.28;50.88;;;0.20;99.90;;;;;;5048180;28;20064;-70
2021/12/03 04:12:42;;;;;;;70.97;50.65;;;0.20;99.90;;;;;;5050059;28;20490;-70
2021/12/03 04:15:11;;;;;;;70.28;51.28;;;0.20;99.90;;;;;;5051817;28;20040;-70
2021/12/03 04:17:36;;;;;;;67.40;47.83;;;0.20;99.90;;;;;;5050486;28;20049;-70
2021/12/03 04:20:05;;;;;;;62.55;49.67;;;0.10;99.90;;;;;;5063649;28;20434;-70
2021/12/03 04:22:32;;;;;;;63.70;52.70;;;0.20;99.90;;;;;;5049992;28;20051;-70
2021/12/03 04:24:58;;;;;;;64.82;52.08;;;0.10;99.90;;;;;;5052119;28;20080;-70
2021/12/03 04:27:24;;;;;;;66.43;49.80;;;0.10;99.90;;;;;;5048716;28;20052;-70
2021/12/03 04:29:50;;;;;;;68.53;51.30;;;0.10;99.90;;;;;;5046787;28;20037;-70
2021/12/03 04:32:17;;;;;;;58.80;47.45;;;0.10;99.90;;;;;;5057712;28;20029;-70
2021/12/03 04:34:44;;;;;;;59.42;48.75;;;0.10;99.90;;;;;;5048436;28;20053;-70
2021/12/03 04:37:09;;;;;;;56.35;46.67;;;0.10;99.90;;;;;;5061861;28;20389;-70
2021/12/03 04:39:35;;;;;;;71.55;53.03;;;0.10;99.90;;;;;;5047262;28;20049;-69
2021/12/03 04:42:01;;;;;;;77.47;52.88;;;0.10;99.90;;;;;;5053794;28;20418;-70
2021/12/03 04:44:26;;;;;;;65.07;48.95;;;0.10;99.90;;;;;;5063692;28;20190;-70
2021/12/03 04:46:52;;;;;;;58.28;48.00;;;0.10;99.90;;;;;;5044373;28;20448;-70
2021/12/03 04:49:17;;;;;;;58.70;48.83;;;0.10;99.90;;;;;;5043296;28;20499;-70
2021/12/03 04:51:43;;;;;;;63.80;47.55;;;0.10;99.90;;;;;;5041392;28;20402;-70
2021/12/03 04:54:09;;;;;;;64.57;48.47;;;0.10;99.90;;;;;;5040863;28;20494;-70
2021/12/03 04:56:34;;;;;;;65.38;49.92;;;0.10;99.90;;;;;;5039488;28;20199;-70
2021/12/03 04:59:00;;;;;;;57.90;48.38;;;0.10;99.90;;;;;;5040938;28;20603;-70
2021/12/03 05:01:26;;;;;;;65.50;49.42;;;0.10;99.90;;;;;;5041331;28;20053;-70
2021/12/03 05:03:51;;;;;;;56.30;47.42;;;0.10;99.90;;;;;;5038990;28;20053;-70
2021/12/03 05:06:28;;;;;;;61.28;50.05;;;0.10;99.90;;;;;;5052665;28;20198;-70
2021/12/03 05:08:55;;;;;;;59.80;48.33;;;0.10;99.90;;;;;;5049766;28;20510;-70
2021/12/03 05:11:20;;;;;;;65.32;49.17;;;0.10;99.90;;;;;;5043188;28;20123;-70
2021/12/03 05:13:46;;;;;;;59.78;49.92;;;0.10;99.90;;;;;;5038730;28;20383;-70
2021/12/03 05:16:12;;;;;;;66.53;51.72;;;0.10;99.90;;;;;;5041140;28;20985;-70
2021/12/03 05:18:38;;;;;;;60.95;50.10;;;0.10;99.90;;;;;;5039022;28;20049;-70
2021/12/03 05:21:04;;;;;;;60.03;49.47;;;0.10;99.90;;;;;;5047215;28;20041;-70
2021/12/03 05:23:32;;;;;;;62.20;51.70;;;0.10;99.90;;;;;;5046065;28;20063;-69
2021/12/03 05:25:58;;;;;;;61.38;48.00;;;0.00;99.90;;;;;;5048381;28;20041;-70
2021/12/03 05:28:25;;;;;;;56.40;47.30;;;0.00;99.90;;;;;;5047000;28;20076;-69
2021/12/03 05:30:51;;;;;;;59.38;46.67;;;0.00;99.90;;;;;;5063819;28;20041;-70
2021/12/03 05:33:19;;;;;;;59.58;49.20;;;0.10;99.90;;;;;;5049611;28;20068;-70
2021/12/03 05:35:45;;;;;;;61.13;50.38;;;0.00;99.90;;;;;;5058299;28;20502;-70
2021/12/03 05:38:11;;;;;;;69.93;51.38;;;0.10;99.90;;;;;;5046307;28;20075;-70
2021/12/03 05:40:37;;;;;;;60.70;48.92;;;0.00;99.90;;;;;;5048776;28;20406;-70
2021/12/03 05:43:03;;;;;;;63.22;49.50;;;0.00;99.90;;;;;;5058942;28;20079;-70
2021/12/03 05:45:32;;;;;;;60.22;48.67;;;0.10;99.90;;;;;;5048086;28;20464;-70
2021/12/03 05:47:58;;;;;;;68.40;50.35;;;0.10;99.90;;;;;;5044513;28;20129;-69
2021/12/03 05:50:28;;;;;;;56.85;47.78;;;0.20;99.90;;;;;;5049437;28;20386;-70
2021/12/03 05:52:55;;;;;;;58.05;48.17;;;0.20;99.90;;;;;;5054590;28;20041;-70
2021/12/03 05:55:21;;;;;;;68.55;47.88;;;0.20;99.90;;;;;;5060951;28;20053;-70
2021/12/03 05:57:47;;;;;;;64.90;49.08;;;0.20;99.90;;;;;;5052036;28;20052;-70
2021/12/03 06:00:17;;;;;;;63.45;49.78;;;0.20;99.90;;;;;;5062899;28;20493;-70
2021/12/03 06:02:43;;;;;;;58.22;47.67;;;0.20;99.90;;;;;;5046819;28;20049;-70
2021/12/03 06:05:09;;;;;;;59.90;48.35;;;0.20;99.90;;;;;;5061660;28;20513;-70
2021/12/03 06:07:35;;;;;;;62.22;47.65;;;0.20;99.90;;;;;;5046767;28;20437;-70
2021/12/03 06:10:03;;;;;;;58.22;45.88;;;0.20;99.90;;;;;;5047405;28;20041;-70
2021/12/03 06:12:28;;;;;;;61.65;45.25;;;0.20;99.90;;;;;;5046450;28;20418;-70
2021/12/03 06:14:54;;;;;;;55.75;44.63;;;0.20;99.90;;;;;;5044321;28;20037;-70
2021/12/03 06:17:20;;;;;;;64.47;45.22;;;0.20;99.90;;;;;;5061022;28;20041;-70
2021/12/03 06:19:45;;;;;;;59.63;45.47;;;0.20;99.90;;;;;;5053445;28;20048;-70
2021/12/03 06:22:11;;;;;;;59.22;45.45;;;0.20;99.90;;;;;;5055972;28;20053;-70
2021/12/03 06:24:39;;;;;;;59.53;43.50;;;0.20;99.90;;;;;;5056801;28;20053;-70
2021/12/03 06:27:05;;;;;;;58.60;45.50;;;0.30;99.90;;;;;;5046750;28;20124;-70
2021/12/03 06:29:31;;;;;;;61.97;45.67;;;0.30;99.90;;;;;;5059353;28;20489;-70
2021/12/03 06:31:57;;;;;;;73.25;49.38;;;0.30;99.90;;;;;;5050242;28;20055;-70
2021/12/03 06:34:22;;;;;;;62.38;44.53;;;0.30;99.90;;;;;;5059794;28;20128;-70
2021/12/03 06:36:49;;;;;;;66.45;46.33;;;0.40;99.90;;;;;;5039504;28;20059;-70
2021/12/03 06:39:15;;;;;;;67.78;46.53;;;0.40;99.90;;;;;;5045627;28;20055;-70
2021/12/03 06:41:41;;;;;;;62.47;43.90;;;0.40;99.90;;;;;;5051178;28;20045;-70
2021/12/03 06:44:08;;;;;;;58.45;43.80;;;0.40;99.90;;;;;;5056407;28;20131;-70
2021/12/03 06:46:35;;;;;;;58.35;43.33;;;0.40;99.90;;;;;;5050068;28;20128;-70
2021/12/03 06:49:01;;;;;;;59.28;43.63;;;0.40;99.90;;;;;;5063402;28;20131;-70
2021/12/03 06:51:27;;;;;;;62.63;43.83;;;0.50;99.90;;;;;;5049770;28;20041;-70
2021/12/03 06:54:02;;;;;;;60.72;41.53;;;0.50;99.90;;;;;;5058590;28;20060;-70
2021/12/03 06:57:10;;;;;;;63.28;43.13;;;0.50;99.90;;;;;;5053248;28;20040;-70
2021/12/03 06:59:19;;;;;;;64.35;39.47;;;0.40;99.90;;;;;;5051246;28;20063;-70
2021/12/03 07:01:44;;;;;;;57.33;41.10;;;0.50;99.90;;;;;;5062494;28;20041;-70
2021/12/03 07:04:11;;;;;;;51.67;39.85;;;0.50;99.90;;;;;;5051964;28;20045;-70
2021/12/03 07:06:37;;;;;;;51.30;38.80;;;0.50;99.90;;;;;;5058476;28;20045;-71
2021/12/03 07:09:04;;;;;;;55.53;38.53;;;0.60;99.90;;;;;;5050742;28;20086;-70
2021/12/03 07:11:30;;;;;;;55.67;40.60;;;0.60;99.90;;;;;;5055821;28;20055;-70
2021/12/03 07:13:55;;;;;;;66.82;42.35;;;0.70;99.90;;;;;;5058774;28;20127;-70
2021/12/03 07:16:21;;;;;;;65.85;41.72;;;0.70;99.90;;;;;;5049264;28;20077;-71
2021/12/03 07:18:47;;;;;;;54.47;40.70;;;0.70;99.90;;;;;;5062801;28;20075;-72
2021/12/03 07:21:13;;;;;;;61.03;40.35;;;0.80;99.90;;;;;;5054761;28;20105;-72
2021/12/03 07:23:38;;;;;;;59.17;41.00;;;0.80;99.90;;;;;;5058637;28;20098;-72
2021/12/03 07:26:04;;;;;;;59.15;41.13;;;0.90;99.90;;;;;;5059785;28;20045;-72
2021/12/03 07:28:31;;;;;;;68.15;42.33;;;0.90;99.90;;;;;;5057767;28;20049;-72
2021/12/03 07:30:57;;;;;;;57.38;39.30;;;1.00;99.90;;;;;;5050176;28;20494;-73
2021/12/03 07:33:23;;;;;;;68.85;41.90;;;1.00;99.90;;;;;;5053824;28;20044;-73
2021/12/03 07:35:48;;;;;;;74.65;43.70;;;1.00;99.90;;;;;;5059703;28;20036;-73
2021/12/03 07:38:17;;;;;;;80.28;44.58;;;1.10;99.90;;;;;;5051876;28;20465;-73
2021/12/03 07:40:46;;;;;;;74.03;42.78;;;1.10;99.90;;;;;;5048321;28;20123;-72
2021/12/03 07:43:12;;;;;;;68.13;45.13;;;1.10;99.90;;;;;;5058151;28;20486;-73
2021/12/03 07:45:39;;;;;;;74.68;46.10;;;1.10;99.90;;;;;;5050011;28;20037;-73
2021/12/03 07:48:07;;;;;;;65.40;44.20;;;1.20;99.90;;;;;;5054005;28;20040;-73
2021/12/03 07:50:35;;;;;;;65.63;42.58;;;1.20;99.90;;;;;;5050002;28;20455;-73
2021/12/03 07:53:01;;;;;;;81.57;44.10;;;1.20;99.90;;;;;;5043652;28;20060;-73
2021/12/03 07:55:27;;;;;;;68.50;45.58;;;1.20;99.90;;;;;;5038688;28;20056;-73
2021/12/03 07:57:55;;;;;;;76.60;45.60;;;1.20;99.90;;;;;;5048190;28;20052;-74
2021/12/03 08:00:21;;;;;;;68.50;43.20;;;1.20;99.90;;;;;;5053611;28;20412;-75
2021/12/03 08:02:46;;;;;;;62.97;42.17;;;1.20;99.90;;;;;;5051932;28;20055;-74
2021/12/03 08:05:12;;;;;;;78.07;46.80;;;1.20;99.90;;;;;;5054050;28;20048;-74
2021/12/03 08:07:39;;;;;;;73.00;45.97;;;1.30;99.90;;;;;;5049983;28;20056;-74
2021/12/03 08:10:05;;;;;;;73.75;44.70;;;1.20;99.90;;;;;;5049343;28;20146;-74
2021/12/03 08:12:31;;;;;;;85.05;48.95;;;1.20;99.90;;;;;;5063586;28;20048;-74
2021/12/03 08:14:57;;;;;;;72.95;46.65;;;1.30;99.90;;;;;;5051634;28;20575;-75
2021/12/03 08:17:22;;;;;;;74.72;45.47;;;1.30;99.90;;;;;;5064822;28;20040;-75
2021/12/03 08:19:48;;;;;;;78.82;47.90;;;1.30;99.90;;;;;;5049930;28;20198;-75
2021/12/03 08:22:13;;;;;;;70.88;45.63;;;1.30;99.90;;;;;;5046721;28;20040;-74
2021/12/03 08:24:39;;;;;;;83.45;48.67;;;1.30;99.90;;;;;;5052653;28;20523;-74
2021/12/03 08:27:06;;;;;;;77.97;48.67;;;1.30;99.90;;;;;;5052698;28;20048;-74
2021/12/03 08:29:32;;;;;;;76.65;48.15;;;1.40;99.90;;;;;;5049657;28;20060;-75
2021/12/03 08:31:58;;;;;;;81.40;48.78;;;1.40;99.90;;;;;;5045312;28;20049;-75
2021/12/03 08:34:24;;;;;;;83.32;52.70;;;1.40;99.90;;;;;;5049274;28;20045;-75
2021/12/03 08:36:50;;;;;;;82.82;50.63;;;1.40;99.90;;;;;;5044012;28;20040;-74
2021/12/03 08:39:16;;;;;;;83.90;51.58;;;1.50;99.90;;;;;;5048239;28;20052;-74
2021/12/03 08:41:42;;;;;;;89.50;55.35;;;1.50;99.90;;;;;;5052178;28;20048;-74
2021/12/03 08:44:07;;;;;;;84.97;53.67;;;1.50;99.90;;;;;;5048132;28;20045;-74
2021/12/03 08:46:36;;;;;;;96.15;58.15;;;1.50;99.90;;;;;;5041466;28;20119;-73
2021/12/03 08:49:09;;;;;;;;;;;1.50;99.90;;;;;;5049729;28;20532;-74
2021/12/03 08:56:52;;;;;;;109.50;61.30;;;1.60;99.90;;;;;;5049274;28;20051;-74
2021/12/03 08:59:18;;;;;;;102.70;61.63;;;1.60;99.90;;;;;;5036606;28;20049;-74
2021/12/03 09:01:44;;;;;;;100.85;60.50;;;1.70;99.90;;;;;;5054166;28;20566;-74
2021/12/03 09:04:12;;;;;;;104.88;59.65;;;1.70;99.90;;;;;;5056236;28;20494;-74
2021/12/03 09:06:38;;;;;;;111.88;62.53;;;1.70;99.90;;;;;;5057465;28;20052;-74
2021/12/03 09:09:06;;;;;;;120.68;63.22;;;1.80;99.90;;;;;;5052848;28;20064;-74
2021/12/03 09:11:32;;;;;;;105.28;62.45;;;1.80;99.90;;;;;;5062202;28;20044;-74
2021/12/03 09:14:01;;;;;;;112.78;62.45;;;1.90;99.90;;;;;;5045749;28;20036;-74
2021/12/03 09:16:27;;;;;;;103.57;61.15;;;1.90;99.90;;;;;;5045874;28;20052;-73
2021/12/03 09:18:54;;;;;;;106.50;63.92;;;1.90;99.90;;;;;;5048929;28;20102;-74
2021/12/03 09:21:24;;;;;;;129.65;65.60;;;2.00;99.90;;;;;;5045144;28;20066;-73
2021/12/03 09:26:30;;;;;;;118.65;64.75;;;2.00;99.90;;;;;;5047391;28;20059;-73
2021/12/03 09:29:24;;;;;;;111.55;64.82;;;2.00;99.90;;;;;;5063157;28;20716;-73
2021/12/03 09:31:48;;;;;;;130.90;68.53;;;2.10;99.90;;;;;;5048487;28;20055;-73
2021/12/03 09:34:16;;;;;;;133.93;70.10;;;2.10;99.90;;;;;;5048098;28;20141;-73
2021/12/03 09:36:43;;;;;;;114.45;63.83;;;2.10;99.90;;;;;;5058350;28;20044;-73
2021/12/03 09:39:16;;;;;;;104.35;61.90;;;2.20;99.90;;;;;;5044453;28;20079;-73
2021/12/03 09:41:42;;;;;;;120.47;64.13;;;2.20;99.90;;;;;;5050264;28;20051;-73
2021/12/03 09:44:11;;;;;;;114.82;65.10;;;2.20;99.90;;;;;;5047199;28;20049;-75
2021/12/03 09:46:40;;;;;;;124.88;65.75;;;2.30;99.90;;;;;;5033419;28;20168;-74
2021/12/03 09:56:55;;;;;;;134.07;64.13;;;2.40;99.90;;;;;;5051076;28;20805;-72
2021/12/03 10:05:21;;;;;;;116.85;58.78;;;2.40;99.90;;;;;;5049008;28;20044;-72
2021/12/03 10:08:56;;;;;;;109.43;58.25;;;2.50;99.90;;;;;;5058850;28;20063;-73
2021/12/03 10:13:41;;;;;;;97.28;54.90;;;2.60;99.90;;;;;;5046607;28;20137;-73
2021/12/03 10:18:50;;;;;;;100.93;55.30;;;2.70;99.90;;;;;;5062789;28;20063;-73
2021/12/03 10:38:48;;;;;;;80.75;40.90;;;3.00;99.90;;;;;;5061767;28;20093;-73
2021/12/03 10:52:11;;;;;;;66.10;35.67;;;3.10;99.90;;;;;;5042147;28;20105;-73
2021/12/03 11:08:36;;;;;;;69.72;31.38;;;3.10;99.90;;;;;;5041955;28;20060;-73
2021/12/03 11:11:35;;;;;;;55.38;28.38;;;3.10;99.90;;;;;;5051788;28;20821;-74
2021/12/03 11:36:22;;;;;;;42.60;22.42;;;3.20;99.90;;;;;;5050669;28;20007;-73
2021/12/03 11:56:22;;;;;;;31.85;16.20;;;3.20;99.90;;;;;;5050408;28;20049;-74
2021/12/03 12:08:19;;;;;;;23.70;14.73;;;3.20;99.90;;;;;;5062803;28;20106;-73
2021/12/03 12:40:50;;;;;;;30.38;16.33;;;2.80;99.90;;;;;;5049170;28;20154;-73
2021/12/03 12:44:27;;;;;;;28.85;16.50;;;2.80;99.90;;;;;;5050345;28;20056;-72
2021/12/03 13:14:39;;;;;;;25.77;17.30;;;2.90;99.90;;;;;;5046738;28;20559;-73
2021/12/03 14:00:06;;;;;;;29.10;18.65;;;3.10;99.90;;;;;;5043536;28;20057;-72
2021/12/03 14:03:03;;;;;;;33.00;19.70;;;3.10;99.90;;;;;;5035026;28;20528;-73
2021/12/03 14:43:12;;;;;;;27.95;17.17;;;3.30;99.90;;;;;;5051457;28;20132;-73
2021/12/03 14:56:16;;;;;;;35.88;17.15;;;3.40;99.90;;;;;;5048124;28;20452;-73
2021/12/03 15:07:14;;;;;;;29.60;15.88;;;3.50;99.90;;;;;;5042508;28;20075;-74
2021/12/03 15:09:42;;;;;;;30.40;17.27;;;3.50;99.90;;;;;;5061239;28;20041;-74
2021/12/03 15:24:37;;;;;;;22.85;15.88;;;3.60;99.90;;;;;;5052470;28;20051;-74
2021/12/03 15:26:46;;;;;;;34.42;17.40;;;3.70;99.90;;;;;;5041091;28;20105;-74
2021/12/03 15:29:38;;;;;;;30.75;18.17;;;3.70;99.90;;;;;;5050692;28;20048;-73
2021/12/03 15:32:06;;;;;;;25.33;17.05;;;3.70;99.90;;;;;;5051061;28;20057;-73
2021/12/03 15:34:45;;;;;;;28.75;19.70;;;3.70;99.90;;;;;;5049698;28;20106;-74
2021/12/03 16:04:18;;;;;;;31.05;19.90;;;3.80;99.90;;;;;;5057452;28;20053;-73
2021/12/03 16:12:08;;;;;;;33.70;21.08;;;3.80;99.90;;;;;;5047072;28;20084;-73
2021/12/03 16:23:07;;;;;;;28.88;21.08;;;3.80;99.90;;;;;;5065138;28;20099;-73
2021/12/03 16:47:17;;;;;;;32.10;26.15;;;3.80;99.90;;;;;;5037437;28;20049;-73
2021/12/03 16:50:19;;;;;;;32.53;25.55;;;3.80;99.90;;;;;;5043845;28;20053;-73
2021/12/03 16:52:45;;;;;;;31.50;25.70;;;3.90;99.90;;;;;;5043258;28;20067;-73
2021/12/03 16:55:11;;;;;;;31.45;24.80;;;3.90;99.90;;;;;;5057235;28;20815;-73
2021/12/03 16:57:38;;;;;;;31.90;24.05;;;3.90;99.90;;;;;;5050469;28;20049;-73
2021/12/03 17:02:56;;;;;;;33.35;25.58;;;3.90;99.90;;;;;;5043689;28;20052;-73
2021/12/03 17:19:16;;;;;;;32.97;26.83;;;3.90;99.90;;;;;;5046818;28;20053;-73
2021/12/03 17:56:06;;;;;;;48.10;30.48;;;3.90;99.90;;;;;;5045831;28;20194;-73
2021/12/03 17:58:38;;;;;;;45.55;33.55;;;3.90;99.90;;;;;;5047270;28;20108;-73
2021/12/03 18:01:12;;;;;;;46.70;31.13;;;3.90;99.90;;;;;;5045118;28;20041;-73
2021/12/03 18:04:26;;;;;;;47.35;32.83;;;3.90;99.90;;;;;;5061069;28;20049;-73
2021/12/03 18:06:45;;;;;;;45.88;32.83;;;3.90;99.90;;;;;;5039669;28;20406;-73
2021/12/03 18:15:16;;;;;;;45.60;33.40;;;3.90;99.90;;;;;;5044289;28;20101;-73
2021/12/03 18:47:25;;;;;;;49.75;35.67;;;4.00;99.90;;;;;;5037290;28;20528;-73
2021/12/03 18:55:38;;;;;;;54.20;36.17;;;4.00;99.90;;;;;;5049713;28;20052;-73
2021/12/03 18:58:07;;;;;;;54.75;38.08;;;4.00;99.90;;;;;;5048022;28;20063;-73
2021/12/03 19:00:35;;;;;;;;;;;4.10;99.90;;;;;;5050022;28;20069;-73
2021/12/03 19:03:05;;;;;;;50.75;36.05;;;4.10;99.90;;;;;;5048639;28;19943;-73
2021/12/03 19:08:12;;;;;;;64.38;39.92;;;4.10;99.90;;;;;;5047663;28;20107;-73
2021/12/03 19:10:44;;;;;;;52.35;39.10;;;4.10;99.90;;;;;;5036896;28;20621;-73
2021/12/03 19:13:15;;;;;;;61.92;39.63;;;4.10;99.90;;;;;;5050418;28;20041;-73
2021/12/03 19:15:42;;;;;;;58.85;39.10;;;4.10;99.90;;;;;;5050161;28;20057;-73
2021/12/03 19:18:08;;;;;;;63.85;41.97;;;4.10;99.90;;;;;;5024560;28;20088;-73
2021/12/03 19:20:36;;;;;;;64.13;41.42;;;4.20;99.90;;;;;;5047191;28;20140;-73
2021/12/03 19:23:02;;;;;;;61.35;41.40;;;4.20;99.90;;;;;;5048738;28;20402;-73
2021/12/03 19:25:28;;;;;;;60.80;40.40;;;4.20;99.90;;;;;;5045629;28;20084;-73
2021/12/03 19:27:54;;;;;;;61.03;40.63;;;4.20;99.90;;;;;;5046973;28;20397;-73
2021/12/03 19:30:20;;;;;;;68.88;43.58;;;4.20;99.90;;;;;;5044365;28;20478;-73
2021/12/03 19:32:45;;;;;;;67.90;42.72;;;4.20;99.90;;;;;;5046367;28;20045;-73
2021/12/03 19:35:11;;;;;;;67.35;43.70;;;4.20;99.90;;;;;;5047601;28;20048;-73
2021/12/03 19:37:37;;;;;;;65.00;42.60;;;4.20;99.90;;;;;;5049332;28;20074;-73
2021/12/03 19:40:08;;;;;;;68.78;43.70;;;4.20;99.90;;;;;;5044944;28;20106;-73
2021/12/03 19:42:43;;;;;;;73.50;45.50;;;4.20;99.90;;;;;;5049407;28;20045;-73
2021/12/03 19:45:13;;;;;;;69.32;42.50;;;4.30;99.90;;;;;;5054136;28;20090;-73
2021/12/03 19:47:58;;;;;;;68.00;43.60;;;4.20;99.90;;;;;;5040047;28;20061;-73
2021/12/03 19:55:33;;;;;;;68.07;43.67;;;4.30;99.90;;;;;;5047832;28;20049;-73
2021/12/03 19:57:58;;;;;;;70.60;42.42;;;4.30;99.90;;;;;;5048820;28;20529;-73
2021/12/03 20:00:25;;;;;;;69.85;43.20;;;4.30;99.90;;;;;;5030638;28;20044;-73
2021/12/03 20:02:51;;;;;;;67.90;41.92;;;4.30;99.90;;;;;;5047149;28;20048;-73
2021/12/03 20:05:17;;;;;;;65.30;43.30;;;4.30;99.90;;;;;;5044539;28;20041;-73
2021/12/03 20:07:43;;;;;;;70.88;43.25;;;4.30;99.90;;;;;;5044772;28;20102;-73
2021/12/03 20:10:15;;;;;;;72.03;42.58;;;4.30;99.90;;;;;;5032227;28;20124;-72